createdAt,value
2022-08-29T00:00:18.767Z,99025.75
2022-08-29T00:01:09.023Z,99027.08
2022-08-29T00:01:42.536Z,99028.35
2022-08-29T00:02:15.773Z,99029.52
2022-08-29T00:02:53.321Z,99028.40
2022-08-29T00:03:27.893Z,99027.02
2022-08-29T00:04:03.818Z,99025.88
2022-08-29T00:04:38.119Z,99024.66
2022-08-29T00:05:12.614Z,99024.07
2022-08-29T00:05:50.126Z,99024.55
2022-08-29T00:06:26.194Z,99023.54
2022-08-29T00:06:59.544Z,99025.30
2022-08-29T00:07:32.909Z,99025.88
2022-08-29T00:08:06.792Z,99026.42
2022-08-29T00:08:40.012Z,99027.91
2022-08-29T00:09:13.328Z,99028.23
2022-08-29T00:09:46.688Z,99025.25
2022-08-29T00:10:20.551Z,99025.52
2022-08-29T00:10:54.167Z,99026.68
2022-08-29T00:11:27.287Z,99026.16
2022-08-29T00:12:00.538Z,99026.12
2022-08-29T00:12:33.846Z,99023.52
2022-08-29T00:13:09.229Z,99025.50
2022-08-29T00:13:42.889Z,99020.23
2022-08-29T00:14:21.089Z,99017.60
2022-08-29T00:14:57.188Z,99016.43
2022-08-29T00:15:30.823Z,99014.89
2022-08-29T00:16:05.704Z,99015.05
2022-08-29T00:16:38.839Z,99012.86
2022-08-29T00:17:12.061Z,99011.84
2022-08-29T00:17:45.254Z,99011.40
2022-08-29T00:18:20.548Z,99014.67
2022-08-29T00:18:53.690Z,99015.09
2022-08-29T00:19:27.768Z,99016.58
2022-08-29T00:20:01.354Z,99019.25
2022-08-29T00:20:36.066Z,99018.81
2022-08-29T00:21:09.279Z,99018.05
2022-08-29T00:21:42.748Z,99017.20
2022-08-29T00:22:16.477Z,99017.63
2022-08-29T00:22:49.694Z,99014.59
2022-08-29T00:23:22.974Z,99014.34
2022-08-29T00:23:56.022Z,99010.57
2022-08-29T00:24:29.354Z,99009.59
2022-08-29T00:25:05.141Z,99008.09
2022-08-29T00:25:38.630Z,99007.46
2022-08-29T00:26:12.111Z,99009.33
2022-08-29T00:26:45.460Z,99005.38
2022-08-29T00:27:18.642Z,99006.61
2022-08-29T00:27:52.066Z,99009.13
2022-08-29T00:28:25.661Z,99007.25
2022-08-29T00:28:58.793Z,99012.02
2022-08-29T00:29:33.972Z,99012.77
2022-08-29T00:30:09.081Z,99016.61
2022-08-29T00:30:42.935Z,99012.88
2022-08-29T00:31:16.245Z,99015.66
2022-08-29T00:31:50.211Z,99017.27
2022-08-29T00:32:23.440Z,99015.39
2022-08-29T00:32:56.584Z,99013.98
2022-08-29T00:33:30.191Z,99012.56
2022-08-29T00:34:04.277Z,99017.04
2022-08-29T00:34:37.371Z,99014.04
2022-08-29T00:35:15.311Z,99012.23
2022-08-29T00:35:48.466Z,99012.98
2022-08-29T00:36:22.504Z,99012.39
2022-08-29T00:36:56.250Z,99011.98
2022-08-29T00:37:29.534Z,99010.45
2022-08-29T00:38:09.811Z,99011.36
2022-08-29T00:38:43.192Z,99011.42
2022-08-29T00:39:16.849Z,99014.30
2022-08-29T00:39:52.164Z,99015.05
2022-08-29T00:40:30.332Z,99007.03
2022-08-29T00:41:04.711Z,99006.34
2022-08-29T00:41:38.147Z,99007.58
2022-08-29T00:42:11.149Z,99008.05
2022-08-29T00:42:44.738Z,99004.64
2022-08-29T00:43:24.962Z,99006.72
2022-08-29T00:43:57.995Z,99003.94
2022-08-29T00:44:31.385Z,98999.34
2022-08-29T00:45:08.043Z,99005.33
2022-08-29T00:45:51.727Z,99003.40
2022-08-29T00:46:47.046Z,99013.77
2022-08-29T00:47:26.805Z,99012.70
2022-08-29T00:48:08.276Z,99019.47
2022-08-29T00:48:42.433Z,99017.06
2022-08-29T00:49:41.926Z,99020.48
2022-08-29T00:50:41.009Z,99021.21
2022-08-29T00:51:18.041Z,99021.17
2022-08-29T00:51:52.490Z,99019.48
2022-08-29T00:52:31.172Z,99019.31
2022-08-29T00:53:09.121Z,99019.95
2022-08-29T00:53:46.203Z,99021.92
2022-08-29T00:54:19.773Z,99019.10
2022-08-29T00:54:56.768Z,99022.24
2022-08-29T00:55:34.058Z,99022.40
2022-08-29T00:56:09.848Z,99019.96
2022-08-29T00:56:46.861Z,99021.28
2022-08-29T00:57:22.451Z,99022.13
2022-08-29T00:58:11.734Z,99023.31
2022-08-29T00:58:59.379Z,99020.73
2022-08-29T00:59:37.284Z,99023.59
2022-08-29T01:00:13.652Z,99020.90
2022-08-29T01:00:49.471Z,99020.91
2022-08-29T01:01:23.521Z,99021.61
2022-08-29T01:01:57.036Z,99023.74
2022-08-29T01:02:30.363Z,99024.17
2022-08-29T01:03:04.953Z,99023.58
2022-08-29T01:03:42.805Z,99022.88
2022-08-29T01:04:24.254Z,99026.36
2022-08-29T01:04:58.137Z,99023.16
2022-08-29T01:05:32.557Z,99024.22
2022-08-29T01:06:06.912Z,99023.75
2022-08-29T01:06:41.561Z,99023.85
2022-08-29T01:07:15.131Z,99026.30
2022-08-29T01:07:52.285Z,99022.02
2022-08-29T01:08:26.297Z,99021.92
2022-08-29T01:08:59.735Z,99022.45
2022-08-29T01:09:35.788Z,99022.35
2022-08-29T01:10:13.195Z,99022.23
2022-08-29T01:11:05.878Z,99021.00
2022-08-29T01:11:58.222Z,99024.84
2022-08-29T01:12:31.802Z,99024.99
2022-08-29T01:13:07.684Z,99028.23
2022-08-29T01:13:45.332Z,99025.04
2022-08-29T01:14:21.218Z,99030.48
2022-08-29T01:15:06.765Z,99025.14
2022-08-29T01:15:44.304Z,99029.63
2022-08-29T01:16:19.734Z,99030.91
2022-08-29T01:16:57.327Z,99029.21
2022-08-29T01:17:44.890Z,99030.66
2022-08-29T01:18:19.701Z,99029.17
2022-08-29T01:18:57.368Z,99029.44
2022-08-29T01:19:58.599Z,99029.52
2022-08-29T01:20:51.642Z,99029.30
2022-08-29T01:22:12.787Z,99027.17
2022-08-29T01:23:04.956Z,99030.52
2022-08-29T01:23:56.716Z,99029.85
2022-08-29T01:24:40.546Z,99034.33
2022-08-29T01:25:21.122Z,99031.27
2022-08-29T01:25:55.578Z,99031.49
2022-08-29T01:26:30.750Z,99030.10
2022-08-29T01:27:04.187Z,99031.92
2022-08-29T01:27:40.827Z,99032.41
2022-08-29T01:28:22.218Z,99027.30
2022-08-29T01:28:57.014Z,99027.63
2022-08-29T01:29:30.202Z,99026.06
2022-08-29T01:30:05.802Z,99025.27
2022-08-29T01:31:06.315Z,99025.59
2022-08-29T01:31:55.969Z,99022.85
2022-08-29T01:32:31.594Z,99021.98
2022-08-29T01:33:04.719Z,99022.63
2022-08-29T01:33:42.987Z,99025.45
2022-08-29T01:34:19.324Z,99024.55
2022-08-29T01:34:53.225Z,99024.50
2022-08-29T01:35:26.990Z,99023.64
2022-08-29T01:36:00.182Z,99021.66
2022-08-29T01:36:47.415Z,99023.11
2022-08-29T01:37:21.104Z,99022.48
2022-08-29T01:37:54.410Z,99021.52
2022-08-29T01:38:27.956Z,99020.13
2022-08-29T01:39:01.309Z,99021.27
2022-08-29T01:39:39.076Z,99023.95
2022-08-29T01:40:13.849Z,99022.30
2022-08-29T01:40:47.102Z,99025.33
2022-08-29T01:41:21.170Z,99024.16
2022-08-29T01:41:57.271Z,99021.54
2022-08-29T01:42:35.437Z,99023.02
2022-08-29T01:43:10.767Z,99022.11
2022-08-29T01:43:46.902Z,99021.67
2022-08-29T01:44:25.682Z,99021.88
2022-08-29T01:45:00.818Z,99021.83
2022-08-29T01:45:36.005Z,99020.80
2022-08-29T01:46:11.387Z,99022.89
2022-08-29T01:46:44.459Z,99022.63
2022-08-29T01:47:18.611Z,99021.29
2022-08-29T01:47:51.903Z,99021.17
2022-08-29T01:48:25.173Z,99019.19
2022-08-29T01:49:01.592Z,99017.27
2022-08-29T01:49:40.565Z,99018.23
2022-08-29T01:50:16.057Z,99019.52
2022-08-29T01:50:49.514Z,99018.12
2022-08-29T01:51:25.914Z,99019.35
2022-08-29T01:51:59.005Z,99017.05
2022-08-29T01:52:32.705Z,99015.77
2022-08-29T01:53:05.898Z,99016.58
2022-08-29T01:53:39.547Z,99018.45
2022-08-29T01:54:13.379Z,99017.27
2022-08-29T01:54:47.104Z,99017.76
2022-08-29T01:55:20.891Z,99017.27
2022-08-29T01:55:53.980Z,99015.92
2022-08-29T01:56:31.489Z,99014.48
2022-08-29T01:57:04.710Z,99012.77
2022-08-29T01:57:40.532Z,99015.77
2022-08-29T01:58:14.222Z,99015.48
2022-08-29T01:58:49.602Z,99015.74
2022-08-29T01:59:27.459Z,99014.77
2022-08-29T02:00:02.593Z,99015.25
2022-08-29T02:00:36.524Z,99014.92
2022-08-29T02:01:10.802Z,99011.91
2022-08-29T02:01:52.781Z,99011.31
2022-08-29T02:02:30.089Z,99012.33
2022-08-29T02:03:04.127Z,99011.98
2022-08-29T02:03:38.634Z,99012.53
2022-08-29T02:04:12.105Z,99014.30
2022-08-29T02:04:47.535Z,99014.34
2022-08-29T02:05:23.289Z,99016.02
2022-08-29T02:06:00.151Z,99014.84
2022-08-29T02:06:34.508Z,99015.96
2022-08-29T02:07:12.045Z,99016.70
2022-08-29T02:07:45.914Z,99015.92
2022-08-29T02:08:20.647Z,99014.27
2022-08-29T02:08:54.977Z,99015.89
2022-08-29T02:09:29.063Z,99015.41
2022-08-29T02:10:02.452Z,99016.14
2022-08-29T02:10:35.624Z,99015.08
2022-08-29T02:11:10.597Z,99017.58
2022-08-29T02:11:46.659Z,99018.54
2022-08-29T02:12:20.946Z,99018.96
2022-08-29T02:12:54.285Z,99018.54
2022-08-29T02:13:27.646Z,99019.23
2022-08-29T02:14:01.819Z,99023.02
2022-08-29T02:14:36.255Z,99017.03
2022-08-29T02:15:09.672Z,99016.59
2022-08-29T02:15:42.837Z,99016.74
2022-08-29T02:16:16.623Z,99017.81
2022-08-29T02:16:50.143Z,99016.20
2022-08-29T02:17:24.490Z,99016.85
2022-08-29T02:17:57.579Z,99016.33
2022-08-29T02:18:32.414Z,99018.35
2022-08-29T02:19:05.634Z,99015.59
2022-08-29T02:19:40.256Z,99014.84
2022-08-29T02:20:13.424Z,99014.98
2022-08-29T02:20:46.585Z,99016.39
2022-08-29T02:21:22.469Z,99015.58
2022-08-29T02:21:55.685Z,99015.09
2022-08-29T02:22:28.908Z,99014.19
2022-08-29T02:23:10.607Z,99012.96
2022-08-29T02:23:52.320Z,99017.70
2022-08-29T02:24:26.486Z,99012.17
2022-08-29T02:24:59.758Z,99015.36
2022-08-29T02:25:41.910Z,99011.88
2022-08-29T02:26:14.951Z,99012.63
2022-08-29T02:26:48.023Z,99012.35
2022-08-29T02:27:21.162Z,99012.83
2022-08-29T02:27:55.714Z,99011.27
2022-08-29T02:28:28.978Z,99012.71
2022-08-29T02:29:02.374Z,99011.16
2022-08-29T02:29:38.008Z,99012.98
2022-08-29T02:30:14.540Z,99013.46
2022-08-29T02:30:52.176Z,99009.71
2022-08-29T02:31:30.244Z,99009.65
2022-08-29T02:32:04.625Z,99012.29
2022-08-29T02:32:38.386Z,99016.56
2022-08-29T02:33:13.874Z,99010.95
2022-08-29T02:33:48.283Z,99014.86
2022-08-29T02:34:22.525Z,99013.69
2022-08-29T02:34:55.645Z,99012.45
2022-08-29T02:35:34.474Z,99014.00
2022-08-29T02:36:09.467Z,99013.27
2022-08-29T02:36:44.639Z,99013.73
2022-08-29T02:37:19.650Z,99015.73
2022-08-29T02:37:53.202Z,99016.36
2022-08-29T02:38:27.290Z,99014.72
2022-08-29T02:39:00.362Z,99017.34
2022-08-29T02:39:34.535Z,99016.43
2022-08-29T02:40:09.345Z,99020.91
2022-08-29T02:40:44.477Z,99016.95
2022-08-29T02:41:18.074Z,99016.13
2022-08-29T02:41:51.391Z,99013.52
2022-08-29T02:42:24.518Z,99014.05
2022-08-29T02:42:57.849Z,99013.71
2022-08-29T02:43:31.363Z,99013.11
2022-08-29T02:44:05.293Z,99008.67
2022-08-29T02:44:38.519Z,99010.27
2022-08-29T02:45:12.330Z,99009.04
2022-08-29T02:45:47.986Z,99006.70
2022-08-29T02:46:21.470Z,99008.14
2022-08-29T02:46:54.799Z,99006.65
2022-08-29T02:47:28.144Z,99006.39
2022-08-29T02:48:01.317Z,99005.16
2022-08-29T02:48:34.441Z,99008.36
2022-08-29T02:49:07.902Z,99002.11
2022-08-29T02:49:40.931Z,99007.66
2022-08-29T02:50:15.034Z,99006.12
2022-08-29T02:50:51.552Z,99011.92
2022-08-29T02:51:28.465Z,99009.04
2022-08-29T02:52:02.725Z,99010.15
2022-08-29T02:52:37.396Z,99013.65
2022-08-29T02:53:11.793Z,99012.75
2022-08-29T02:53:45.065Z,99015.68
2022-08-29T02:54:19.060Z,99010.02
2022-08-29T02:54:52.302Z,99007.67
2022-08-29T02:55:26.655Z,99010.88
2022-08-29T02:55:59.868Z,99011.52
2022-08-29T02:56:33.032Z,99005.33
2022-08-29T02:57:06.618Z,99007.84
2022-08-29T02:57:39.749Z,99010.35
2022-08-29T02:58:14.363Z,99011.98
2022-08-29T02:58:50.185Z,99010.86
2022-08-29T02:59:23.254Z,99012.84
2022-08-29T02:59:56.391Z,99012.02
2022-08-29T03:00:29.719Z,99013.11
2022-08-29T03:01:02.858Z,99014.59
2022-08-29T03:01:38.904Z,99015.76
2022-08-29T03:02:12.269Z,99015.59
2022-08-29T03:02:47.674Z,99016.13
2022-08-29T03:03:21.593Z,99020.19
2022-08-29T03:03:54.997Z,99019.65
2022-08-29T03:04:28.306Z,99022.27
2022-08-29T03:05:01.538Z,99021.79
2022-08-29T03:05:35.456Z,99019.86
2022-08-29T03:06:09.192Z,99018.52
2022-08-29T03:06:42.316Z,99021.29
2022-08-29T03:07:15.511Z,99019.10
2022-08-29T03:07:51.012Z,99019.44
2022-08-29T03:08:24.557Z,99020.70
2022-08-29T03:08:57.708Z,99017.55
2022-08-29T03:09:31.247Z,99020.71
2022-08-29T03:10:05.912Z,99019.64
2022-08-29T03:10:39.047Z,99019.54
2022-08-29T03:11:12.229Z,99020.09
2022-08-29T03:11:45.335Z,99018.93
2022-08-29T03:12:19.162Z,99022.29
2022-08-29T03:12:52.238Z,99020.31
2022-08-29T03:13:25.416Z,99019.14
2022-08-29T03:13:58.629Z,99017.86
2022-08-29T03:14:31.887Z,99019.67
2022-08-29T03:15:06.105Z,99019.04
2022-08-29T03:15:39.694Z,99020.10
2022-08-29T03:16:13.546Z,99020.75
2022-08-29T03:16:46.749Z,99020.80
2022-08-29T03:17:19.866Z,99019.27
2022-08-29T03:17:53.153Z,99022.41
2022-08-29T03:18:26.538Z,99022.63
2022-08-29T03:18:59.823Z,99026.48
2022-08-29T03:19:37.276Z,99023.14
2022-08-29T03:20:13.699Z,99022.23
2022-08-29T03:20:47.177Z,99024.16
2022-08-29T03:21:25.162Z,99030.13
2022-08-29T03:21:58.428Z,99027.09
2022-08-29T03:22:31.546Z,99030.08
2022-08-29T03:23:06.097Z,99032.00
2022-08-29T03:23:41.143Z,99033.55
2022-08-29T03:24:14.444Z,99031.91
2022-08-29T03:24:47.694Z,99034.25
2022-08-29T03:25:22.675Z,99037.57
2022-08-29T03:25:56.146Z,99035.06
2022-08-29T03:26:29.612Z,99033.20
2022-08-29T03:27:03.870Z,99033.15
2022-08-29T03:27:36.986Z,99034.81
2022-08-29T03:28:10.063Z,99033.75
2022-08-29T03:28:43.115Z,99030.55
2022-08-29T03:29:16.256Z,99033.45
2022-08-29T03:29:49.587Z,99035.08
2022-08-29T03:30:24.014Z,99034.77
2022-08-29T03:30:57.399Z,99030.31
2022-08-29T03:31:30.662Z,99030.86
2022-08-29T03:32:05.154Z,99031.25
2022-08-29T03:32:39.403Z,99032.66
2022-08-29T03:33:12.584Z,99033.35
2022-08-29T03:33:45.622Z,99034.31
2022-08-29T03:34:18.959Z,99035.27
2022-08-29T03:34:53.827Z,99037.64
2022-08-29T03:35:26.972Z,99034.98
2022-08-29T03:36:00.214Z,99041.98
2022-08-29T03:36:33.394Z,99041.30
2022-08-29T03:37:06.381Z,99041.61
2022-08-29T03:37:40.829Z,99042.58
2022-08-29T03:38:14.029Z,99041.35
2022-08-29T03:38:47.545Z,99047.84
2022-08-29T03:39:21.114Z,99045.60
2022-08-29T03:39:55.412Z,99048.13
2022-08-29T03:40:28.815Z,99047.70
2022-08-29T03:41:02.158Z,99051.73
2022-08-29T03:41:35.750Z,99050.23
2022-08-29T03:42:09.598Z,99051.36
2022-08-29T03:42:43.237Z,99055.68
2022-08-29T03:43:16.666Z,99056.76
2022-08-29T03:43:52.171Z,99056.55
2022-08-29T03:44:25.676Z,99055.20
2022-08-29T03:44:58.847Z,99054.79
2022-08-29T03:45:32.456Z,99051.81
2022-08-29T03:46:05.805Z,99052.52
2022-08-29T03:46:39.750Z,99052.61
2022-08-29T03:47:13.594Z,99051.67
2022-08-29T03:47:47.063Z,99053.21
2022-08-29T03:48:20.580Z,99051.95
2022-08-29T03:48:54.214Z,99056.05
2022-08-29T03:49:27.848Z,99051.73
2022-08-29T03:50:01.150Z,99052.95
2022-08-29T03:50:34.339Z,99054.33
2022-08-29T03:51:08.985Z,99052.73
2022-08-29T03:51:42.617Z,99055.20
2022-08-29T03:52:16.419Z,99053.80
2022-08-29T03:52:49.572Z,99053.49
2022-08-29T03:53:22.816Z,99055.33
2022-08-29T03:53:55.954Z,99054.10
2022-08-29T03:54:29.415Z,99057.05
2022-08-29T03:55:04.254Z,99053.73
2022-08-29T03:55:38.345Z,99055.92
2022-08-29T03:56:18.384Z,99056.57
2022-08-29T03:56:52.391Z,99054.55
2022-08-29T03:57:25.522Z,99055.88
2022-08-29T03:57:58.621Z,99061.21
2022-08-29T03:58:31.697Z,99057.69
2022-08-29T03:59:05.079Z,99056.99
2022-08-29T03:59:38.223Z,99059.46
2022-08-29T04:00:16.317Z,99058.14
2022-08-29T04:00:49.785Z,99058.27
2022-08-29T04:01:27.066Z,99056.42
2022-08-29T04:02:00.706Z,99055.20
2022-08-29T04:02:33.961Z,99056.36
2022-08-29T04:03:07.162Z,99054.62
2022-08-29T04:03:40.511Z,99052.90
2022-08-29T04:04:34.068Z,99054.95
2022-08-29T04:05:08.431Z,99053.17
2022-08-29T04:05:43.338Z,99055.14
2022-08-29T04:06:16.776Z,99054.08
2022-08-29T04:06:49.925Z,99057.65
2022-08-29T04:07:23.888Z,99056.80
2022-08-29T04:07:59.748Z,99059.03
2022-08-29T04:08:32.860Z,99058.72
2022-08-29T04:09:06.031Z,99059.02
2022-08-29T04:09:43.227Z,99058.14
2022-08-29T04:10:23.871Z,99059.73
2022-08-29T04:10:56.995Z,99056.05
2022-08-29T04:11:30.210Z,99059.89
2022-08-29T04:12:03.628Z,99057.20
2022-08-29T04:12:36.961Z,99056.09
2022-08-29T04:13:10.125Z,99056.35
2022-08-29T04:13:43.458Z,99062.18
2022-08-29T04:14:16.615Z,99057.38
2022-08-29T04:14:50.015Z,99058.09
2022-08-29T04:15:28.341Z,99057.21
2022-08-29T04:16:01.508Z,99058.98
2022-08-29T04:16:34.985Z,99061.76
2022-08-29T04:17:10.478Z,99060.89
2022-08-29T04:17:52.910Z,99059.89
2022-08-29T04:18:26.738Z,99064.91
2022-08-29T04:19:00.223Z,99062.09
2022-08-29T04:19:35.456Z,99061.27
2022-08-29T04:20:09.756Z,99062.13
2022-08-29T04:20:45.161Z,99058.55
2022-08-29T04:21:19.331Z,99059.14
2022-08-29T04:21:52.527Z,99059.73
2022-08-29T04:22:25.668Z,99062.00
2022-08-29T04:22:59.721Z,99063.62
2022-08-29T04:23:34.687Z,99063.23
2022-08-29T04:24:07.938Z,99065.21
2022-08-29T04:24:41.164Z,99060.83
2022-08-29T04:25:15.588Z,99066.56
2022-08-29T04:25:48.607Z,99063.42
2022-08-29T04:26:37.854Z,99066.94
2022-08-29T04:27:11.689Z,99063.85
2022-08-29T04:27:45.351Z,99064.90
2022-08-29T04:28:18.537Z,99064.44
2022-08-29T04:28:53.294Z,99064.16
2022-08-29T04:29:26.485Z,99068.48
2022-08-29T04:30:00.487Z,99064.39
2022-08-29T04:30:34.789Z,99066.41
2022-08-29T04:31:20.490Z,99067.73
2022-08-29T04:31:53.740Z,99066.45
2022-08-29T04:32:27.331Z,99068.59
2022-08-29T04:33:01.141Z,99066.15
2022-08-29T04:33:34.268Z,99069.45
2022-08-29T04:34:09.558Z,99069.99
2022-08-29T04:34:42.840Z,99069.45
2022-08-29T04:35:16.927Z,99070.20
2022-08-29T04:35:51.084Z,99069.48
2022-08-29T04:36:24.353Z,99069.80
2022-08-29T04:36:58.088Z,99073.17
2022-08-29T04:37:31.507Z,99076.60
2022-08-29T04:38:05.113Z,99076.50
2022-08-29T04:38:38.178Z,99074.57
2022-08-29T04:39:12.665Z,99072.48
2022-08-29T04:39:46.688Z,99072.16
2022-08-29T04:40:22.101Z,99074.24
2022-08-29T04:40:55.286Z,99074.42
2022-08-29T04:41:28.383Z,99074.11
2022-08-29T04:42:01.854Z,99075.66
2022-08-29T04:42:39.066Z,99076.84
2022-08-29T04:43:12.817Z,99075.35
2022-08-29T04:43:46.359Z,99078.72
2022-08-29T04:44:19.478Z,99076.33
2022-08-29T04:44:52.715Z,99078.17
2022-08-29T04:45:26.843Z,99080.66
2022-08-29T04:46:00.963Z,99078.54
2022-08-29T04:46:34.857Z,99081.42
2022-08-29T04:47:08.045Z,99079.19
2022-08-29T04:47:42.706Z,99080.20
2022-08-29T04:48:17.999Z,99078.55
2022-08-29T04:48:51.810Z,99076.24
2022-08-29T04:49:25.109Z,99076.94
2022-08-29T04:49:58.541Z,99075.77
2022-08-29T04:50:31.837Z,99080.79
2022-08-29T04:51:05.069Z,99076.30
2022-08-29T04:51:38.258Z,99079.82
2022-08-29T04:52:12.646Z,99079.23
2022-08-29T04:52:47.498Z,99080.79
2022-08-29T04:53:20.784Z,99080.16
2022-08-29T04:53:54.239Z,99080.60
2022-08-29T04:54:27.659Z,99080.30
2022-08-29T04:55:00.858Z,99084.45
2022-08-29T04:55:34.004Z,99082.95
2022-08-29T04:56:09.774Z,99085.09
2022-08-29T04:56:47.134Z,99082.66
2022-08-29T04:57:21.383Z,99081.33
2022-08-29T04:57:57.016Z,99083.10
2022-08-29T04:58:31.266Z,99086.88
2022-08-29T04:59:05.229Z,99083.04
2022-08-29T04:59:38.462Z,99084.42
2022-08-29T05:00:15.232Z,99086.95
2022-08-29T05:00:48.493Z,99084.77
2022-08-29T05:01:24.853Z,99086.94
2022-08-29T05:01:58.922Z,99088.80
2022-08-29T05:02:32.205Z,99087.27
2022-08-29T05:03:05.629Z,99089.30
2022-08-29T05:03:39.194Z,99090.05
2022-08-29T05:04:14.620Z,99089.19
2022-08-29T05:04:52.746Z,99089.18
2022-08-29T05:05:26.350Z,99088.33
2022-08-29T05:06:02.533Z,99092.16
2022-08-29T05:06:35.794Z,99088.66
2022-08-29T05:07:09.689Z,99093.73
2022-08-29T05:07:44.076Z,99091.76
2022-08-29T05:08:17.140Z,99095.94
2022-08-29T05:08:58.787Z,99095.52
2022-08-29T05:09:33.438Z,99095.73
2022-08-29T05:10:11.184Z,99096.11
2022-08-29T05:10:47.936Z,99100.80
2022-08-29T05:11:22.059Z,99105.72
2022-08-29T05:11:56.071Z,99100.38
2022-08-29T05:12:30.998Z,99100.23
2022-08-29T05:13:04.584Z,99103.75
2022-08-29T05:13:38.251Z,99103.85
2022-08-29T05:14:11.876Z,99105.72
2022-08-29T05:14:44.897Z,99106.90
2022-08-29T05:15:18.971Z,99104.77
2022-08-29T05:15:52.567Z,99107.10
2022-08-29T05:16:26.098Z,99104.72
2022-08-29T05:16:59.414Z,99109.11
2022-08-29T05:17:32.755Z,99107.04
2022-08-29T05:18:06.055Z,99107.04
2022-08-29T05:18:39.859Z,99109.23
2022-08-29T05:19:15.918Z,99109.92
2022-08-29T05:19:50.062Z,99108.75
2022-08-29T05:20:23.335Z,99111.54
2022-08-29T05:20:56.521Z,99108.77
2022-08-29T05:21:35.892Z,99110.43
2022-08-29T05:22:09.639Z,99110.75
2022-08-29T05:22:43.267Z,99109.84
2022-08-29T05:23:18.430Z,99106.84
2022-08-29T05:23:52.169Z,99111.10
2022-08-29T05:24:25.777Z,99111.80
2022-08-29T05:25:00.443Z,99108.10
2022-08-29T05:25:33.675Z,99110.29
2022-08-29T05:26:06.860Z,99110.56
2022-08-29T05:26:45.661Z,99108.92
2022-08-29T05:27:21.696Z,99108.23
2022-08-29T05:27:54.798Z,99112.14
2022-08-29T05:28:29.827Z,99107.88
2022-08-29T05:29:08.742Z,99110.36
2022-08-29T05:29:44.925Z,99107.63
2022-08-29T05:30:31.949Z,99106.47
2022-08-29T05:31:13.770Z,99108.04
2022-08-29T05:31:48.398Z,99105.11
2022-08-29T05:32:21.735Z,99103.55
2022-08-29T05:32:55.456Z,99103.92
2022-08-29T05:33:28.925Z,99101.48
2022-08-29T05:34:32.103Z,99102.23
2022-08-29T05:34:56.970Z,99100.28
2022-08-29T05:35:30.036Z,99099.73
2022-08-29T05:36:03.595Z,99099.69
2022-08-29T05:36:36.986Z,99097.71
2022-08-29T05:37:15.256Z,99100.80
2022-08-29T05:37:48.587Z,99103.29
2022-08-29T05:38:21.922Z,99100.88
2022-08-29T05:38:55.908Z,99103.50
2022-08-29T05:39:29.265Z,99102.55
2022-08-29T05:40:03.446Z,99101.21
2022-08-29T05:40:36.839Z,99102.52
2022-08-29T05:41:10.079Z,99103.64
2022-08-29T05:41:43.496Z,99102.04
2022-08-29T05:42:19.982Z,99104.98
2022-08-29T05:42:53.327Z,99104.17
2022-08-29T05:43:26.512Z,99103.06
2022-08-29T05:43:59.646Z,99106.22
2022-08-29T05:44:35.382Z,99108.91
2022-08-29T05:45:09.668Z,99108.41
2022-08-29T05:45:43.165Z,99110.03
2022-08-29T05:46:20.256Z,99109.93
2022-08-29T05:46:54.546Z,99111.34
2022-08-29T05:47:27.966Z,99112.09
2022-08-29T05:48:04.950Z,99111.34
2022-08-29T05:48:41.697Z,99107.08
2022-08-29T05:49:15.456Z,99108.36
2022-08-29T05:49:49.610Z,99110.30
2022-08-29T05:50:23.838Z,99108.29
2022-08-29T05:50:58.607Z,99105.94
2022-08-29T05:51:38.831Z,99108.29
2022-08-29T05:52:16.190Z,99107.61
2022-08-29T05:52:49.753Z,99107.56
2022-08-29T05:53:22.995Z,99107.72
2022-08-29T05:53:56.317Z,99105.48
2022-08-29T05:54:30.319Z,99105.23
2022-08-29T05:55:04.387Z,99103.56
2022-08-29T05:55:44.855Z,99107.22
2022-08-29T05:56:25.941Z,99105.69
2022-08-29T05:56:59.091Z,99107.50
2022-08-29T05:57:32.471Z,99106.20
2022-08-29T05:58:05.733Z,99106.11
2022-08-29T05:58:39.658Z,99105.01
2022-08-29T05:59:14.032Z,99105.33
2022-08-29T05:59:50.051Z,99107.38
2022-08-29T06:00:23.315Z,99107.37
2022-08-29T06:00:56.867Z,99108.34
2022-08-29T06:01:34.360Z,99106.01
2022-08-29T06:02:09.663Z,99106.48
2022-08-29T06:02:43.086Z,99108.05
2022-08-29T06:03:17.118Z,99108.05
2022-08-29T06:03:50.659Z,99107.36
2022-08-29T06:04:24.309Z,99108.79
2022-08-29T06:04:57.751Z,99108.05
2022-08-29T06:05:31.022Z,99108.38
2022-08-29T06:06:04.377Z,99108.11
2022-08-29T06:06:39.558Z,99108.01
2022-08-29T06:07:13.337Z,99109.36
2022-08-29T06:07:46.588Z,99108.06
2022-08-29T06:08:21.180Z,99112.41
2022-08-29T06:08:55.822Z,99109.73
2022-08-29T06:09:29.220Z,99110.12
2022-08-29T06:10:07.096Z,99111.11
2022-08-29T06:10:44.040Z,99107.63
2022-08-29T06:11:25.438Z,99108.98
2022-08-29T06:11:59.849Z,99111.08
2022-08-29T06:12:34.553Z,99103.80
2022-08-29T06:13:07.898Z,99108.16
2022-08-29T06:13:41.114Z,99108.85
2022-08-29T06:14:15.268Z,99109.08
2022-08-29T06:14:50.406Z,99108.45
2022-08-29T06:15:28.761Z,99108.94
2022-08-29T06:16:02.093Z,99111.17
2022-08-29T06:16:35.336Z,99111.94
2022-08-29T06:17:09.490Z,99111.19
2022-08-29T06:17:42.640Z,99112.80
2022-08-29T06:18:16.034Z,99114.78
2022-08-29T06:18:49.633Z,99112.86
2022-08-29T06:19:23.508Z,99117.13
2022-08-29T06:19:56.603Z,99116.40
2022-08-29T06:20:29.785Z,99114.90
2022-08-29T06:21:06.333Z,99115.65
2022-08-29T06:21:39.585Z,99114.96
2022-08-29T06:22:12.687Z,99115.16
2022-08-29T06:22:45.896Z,99116.79
2022-08-29T06:23:18.977Z,99118.34
2022-08-29T06:23:56.964Z,99120.69
2022-08-29T06:24:32.167Z,99121.39
2022-08-29T06:25:35.204Z,99120.44
2022-08-29T06:26:00.299Z,99123.39
2022-08-29T06:26:34.665Z,99123.96
2022-08-29T06:27:08.066Z,99123.20
2022-08-29T06:27:41.250Z,99120.31
2022-08-29T06:28:20.508Z,99122.40
2022-08-29T06:28:57.606Z,99123.91
2022-08-29T06:29:30.964Z,99123.86
2022-08-29T06:30:04.923Z,99122.14
2022-08-29T06:30:38.206Z,99123.86
2022-08-29T06:31:23.107Z,99123.75
2022-08-29T06:31:57.056Z,99124.81
2022-08-29T06:32:30.286Z,99127.66
2022-08-29T06:33:04.573Z,99127.81
2022-08-29T06:33:38.224Z,99125.58
2022-08-29T06:34:11.433Z,99126.59
2022-08-29T06:34:44.650Z,99129.33
2022-08-29T06:35:17.937Z,99127.29
2022-08-29T06:35:53.108Z,99131.23
2022-08-29T06:36:28.224Z,99127.60
2022-08-29T06:37:01.565Z,99129.77
2022-08-29T06:37:34.638Z,99132.27
2022-08-29T06:38:12.004Z,99128.93
2022-08-29T06:38:47.681Z,99127.23
2022-08-29T06:39:21.067Z,99131.72
2022-08-29T06:39:54.381Z,99128.51
2022-08-29T06:40:27.766Z,99135.58
2022-08-29T06:41:09.449Z,99133.28
2022-08-29T06:41:42.584Z,99135.85
2022-08-29T06:42:19.226Z,99135.59
2022-08-29T06:42:52.351Z,99136.23
2022-08-29T06:43:25.793Z,99136.17
2022-08-29T06:44:00.141Z,99135.48
2022-08-29T06:44:33.760Z,99138.03
2022-08-29T06:45:07.648Z,99141.05
2022-08-29T06:45:42.860Z,99141.73
2022-08-29T06:46:23.105Z,99142.17
2022-08-29T06:46:56.607Z,99140.19
2022-08-29T06:47:29.825Z,99141.05
2022-08-29T06:48:03.127Z,99140.61
2022-08-29T06:48:36.360Z,99137.19
2022-08-29T06:49:12.931Z,99139.17
2022-08-29T06:49:46.146Z,99134.98
2022-08-29T06:50:19.297Z,99140.66
2022-08-29T06:50:55.629Z,99140.35
2022-08-29T06:51:33.196Z,99137.52
2022-08-29T06:52:06.892Z,99137.83
2022-08-29T06:52:40.392Z,99137.63
2022-08-29T06:53:26.943Z,99137.68